Time;durP1;ratioP1;P1;durP2;ratioP2;P2;SDS_P1;SDS_P2;PMS_P1;PMS_P2;Temp;Humidity;BMP_temperature;BMP_pressure;BME280_temperature;BME280_humidity;BME280_pressure;Samples;Min_cycle;Max_cycle;Signal;HPM_P1;HPM_P2
2021/12/25 00:02:26;;;;;;;30.20;24.00;;;;;;;0.87;98.16;97630.39;1715247;82;21453;-79
2021/12/25 00:04:53;;;;;;;35.03;25.67;;;;;;;0.92;98.38;97624.38;1724429;83;21042;-78
2021/12/25 00:07:20;;;;;;;32.30;23.57;;;;;;;0.98;98.69;97635.34;1724503;81;21055;-79
2021/12/25 00:09:47;;;;;;;38.17;26.67;;;;;;;1.01;98.98;97636.98;1738752;80;20964;-77
2021/12/25 00:12:13;;;;;;;32.43;25.07;;;;;;;1.02;99.17;97627.20;1713328;82;20947;-76
2021/12/25 00:14:41;;;;;;;34.20;25.17;;;;;;;1.07;99.13;97629.94;1719091;83;20964;-75
2021/12/25 00:17:07;;;;;;;28.20;21.27;;;;;;;1.12;99.22;97618.11;1697219;82;20975;-71
2021/12/25 00:19:34;;;;;;;29.87;22.90;;;;;;;1.20;99.46;97627.78;1730790;82;21030;-72
2021/12/25 00:22:01;;;;;;;29.20;23.13;;;;;;;1.26;99.48;97622.05;1750699;82;21966;-71
2021/12/25 00:24:27;;;;;;;31.43;22.63;;;;;;;1.29;99.56;97601.20;1726937;82;21129;-68
2021/12/25 00:27:01;;;;;;;33.57;22.43;;;;;;;1.31;99.49;97600.42;1735131;82;21782;-70
2021/12/25 00:34:24;;;;;;;27.23;20.97;;;;;;;1.42;99.66;97594.77;1718377;81;21083;-72
2021/12/25 00:36:52;;;;;;;29.13;22.80;;;;;;;1.46;99.71;97597.20;1726904;82;21023;-69
2021/12/25 00:39:20;;;;;;;28.33;20.90;;;;;;;1.49;99.78;97594.06;1750630;82;21058;-73
2021/12/25 00:41:47;;;;;;;29.67;22.50;;;;;;;1.52;99.86;97586.97;1749548;82;21074;-69
2021/12/25 00:44:14;;;;;;;29.83;21.27;;;;;;;1.57;99.91;97586.24;1750878;82;21595;-71
2021/12/25 00:46:40;;;;;;;27.27;19.30;;;;;;;1.59;99.92;97593.41;1731971;82;21095;-86
2021/12/25 00:49:07;;;;;;;27.40;20.57;;;;;;;1.62;99.96;97585.80;1752468;82;21000;-85
2021/12/25 00:51:33;;;;;;;27.63;21.33;;;;;;;1.67;100.00;97583.22;1751701;81;20975;-84
2021/12/25 00:54:03;;;;;;;22.97;17.67;;;;;;;1.73;100.00;97580.09;1744846;81;21083;-91
2021/12/25 00:56:31;;;;;;;29.82;18.90;;;;;;;1.77;100.00;97577.77;1752692;82;21563;-82
2021/12/25 00:58:57;;;;;;;27.87;19.73;;;;;;;1.79;100.00;97580.44;1743550;81;21082;-78
2021/12/25 01:01:24;;;;;;;23.00;17.97;;;;;;;1.82;100.00;97585.27;1726892;82;21337;-81
2021/12/25 01:03:50;;;;;;;25.20;19.17;;;;;;;1.86;100.00;97599.63;1737675;82;20986;-79
2021/12/25 01:06:16;;;;;;;24.83;19.50;;;;;;;1.91;100.00;97594.39;1736364;82;21238;-82
2021/12/25 01:08:43;;;;;;;25.32;18.80;;;;;;;1.99;100.00;97590.50;1750822;82;21341;-77
2021/12/25 01:11:12;;;;;;;34.03;22.17;;;;;;;2.04;100.00;97584.74;1748029;82;21027;-80
2021/12/25 01:13:45;;;;;;;18.90;16.27;;;;;;;2.08;100.00;97589.02;1727732;82;21066;-83
2021/12/25 01:29:33;;;;;;;30.77;18.98;;;;;;;2.26;100.00;97595.33;1705599;82;21177;-80
2021/12/25 01:32:20;;;;;;;28.30;18.65;;;;;;;2.31;100.00;97599.89;1735917;82;21032;-80
2021/12/25 01:34:54;;;;;;;24.20;18.15;;;;;;;2.35;100.00;97598.38;1710427;82;21613;-82
2021/12/25 01:37:21;;;;;;;24.85;18.00;;;;;;;2.39;100.00;97618.03;1749998;81;20986;-79
2021/12/25 01:40:58;;;;;;;22.65;17.60;;;;;;;2.41;100.00;97594.70;1669043;85;21030;-81
2021/12/25 01:48:24;;;;;;;19.85;14.73;;;;;;;2.63;100.00;97596.81;1749998;81;21282;-80
2021/12/25 01:50:51;;;;;;;20.15;17.40;;;;;;;2.72;99.94;97597.16;1728818;82;21016;-77
2021/12/25 01:53:19;;;;;;;21.82;15.90;;;;;;;2.77;99.63;97596.69;1718874;82;21028;-78
2021/12/25 01:55:47;;;;;;;21.80;15.93;;;;;;;2.81;99.40;97587.69;1720259;82;21118;-87
2021/12/25 01:58:14;;;;;;;20.97;16.77;;;;;;;2.83;99.16;97590.35;1703767;82;21603;-77
2021/12/25 02:00:47;;;;;;;21.25;14.47;;;;;;;2.87;98.92;97603.95;1735256;82;20952;-85
2021/12/25 02:03:15;;;;;;;20.48;15.32;;;;;;;2.92;98.75;97603.99;1740989;81;21038;-75
2021/12/25 02:05:42;;;;;;;20.37;15.80;;;;;;;2.96;98.42;97613.86;1739411;82;21865;-80
2021/12/25 02:08:09;;;;;;;20.85;16.35;;;;;;;3.02;98.19;97596.89;1716918;83;21556;-86
2021/12/25 02:10:35;;;;;;;22.05;16.07;;;;;;;3.04;97.83;97614.72;1682134;82;20949;-80
2021/12/25 02:13:03;;;;;;;22.80;14.70;;;;;;;3.07;97.71;97619.52;1750446;82;21003;-79
2021/12/25 02:15:30;;;;;;;18.50;13.83;;;;;;;3.13;97.55;97623.02;1706559;82;21009;-80
2021/12/25 02:18:27;;;;;;;17.80;14.07;;;;;;;3.21;97.43;97609.82;1731764;82;21114;-78
2021/12/25 02:21:08;;;;;;;14.58;11.63;;;;;;;3.27;97.05;97618.88;1747071;81;21575;-83
2021/12/25 02:23:26;;;;;;;18.05;13.75;;;;;;;3.35;96.69;97636.23;1747177;80;21575;-80
2021/12/25 02:25:58;;;;;;;16.87;12.63;;;;;;;3.41;96.51;97630.68;1748634;82;20996;-83
2021/12/25 02:28:25;;;;;;;18.75;13.13;;;;;;;3.45;96.11;97633.09;1732191;81;21555;-76
2021/12/25 02:30:56;;;;;;;16.57;11.50;;;;;;;3.51;95.96;97644.05;1707458;83;21636;-76
2021/12/25 02:33:25;;;;;;;14.20;10.75;;;;;;;3.58;95.87;97641.71;1720561;83;21798;-74
2021/12/25 02:35:53;;;;;;;16.12;11.25;;;;;;;3.64;95.84;97637.52;1732483;81;20928;-78
2021/12/25 02:38:20;;;;;;;15.00;12.63;;;;;;;3.69;95.64;97622.93;1750475;82;20975;-76
2021/12/25 02:40:46;;;;;;;16.90;14.65;;;;;;;3.73;95.46;97633.32;1750661;82;21044;-73
2021/12/25 02:43:15;;;;;;;14.73;12.70;;;;;;;3.77;95.07;97620.30;1719067;83;21002;-70
2021/12/25 02:45:41;;;;;;;16.10;12.23;;;;;;;3.79;94.95;97632.83;1719139;83;21468;-73
2021/12/25 02:48:11;;;;;;;15.78;12.90;;;;;;;3.83;94.72;97630.73;1707028;82;20976;-71
2021/12/25 02:50:38;;;;;;;12.65;10.45;;;;;;;3.86;94.34;97656.79;1750275;82;21573;-74
2021/12/25 02:53:07;;;;;;;13.15;11.55;;;;;;;3.89;94.02;97674.08;1750700;82;20933;-74
2021/12/25 02:55:34;;;;;;;13.53;10.95;;;;;;;3.91;93.81;97652.03;1750779;82;21270;-74
2021/12/25 02:58:00;;;;;;;12.80;11.50;;;;;;;3.91;93.53;97662.66;1730434;82;21058;-75
2021/12/25 03:00:41;;;;;;;13.58;10.65;;;;;;;3.89;93.47;97666.90;1703931;83;21063;-73
2021/12/25 03:03:08;;;;;;;13.15;10.13;;;;;;;3.92;93.45;97681.56;1750316;82;21023;-74
2021/12/25 03:05:36;;;;;;;11.80;10.28;;;;;;;3.95;93.41;97689.81;1726984;81;21016;-75
2021/12/25 03:08:05;;;;;;;12.45;10.55;;;;;;;3.97;93.33;97693.56;1750567;82;21064;-74
2021/12/25 03:10:35;;;;;;;12.53;10.78;;;;;;;3.99;93.28;97668.02;1749905;81;21112;-76
2021/12/25 03:13:29;;;;;;;17.15;11.97;;;;;;;3.99;93.34;97660.84;1750093;82;21517;-75
2021/12/25 03:15:45;;;;;;;14.73;10.90;;;;;;;4.00;93.34;97664.30;1701647;82;20935;-76
2021/12/25 03:18:01;;;;;;;13.58;8.98;;;;;;;4.00;93.59;97678.41;1706254;82;21055;-74
2021/12/25 03:20:29;;;;;;;13.58;10.53;;;;;;;4.02;93.73;97695.45;1750579;81;20980;-75
2021/12/25 03:22:55;;;;;;;10.58;9.35;;;;;;;4.05;93.77;97669.13;1750436;81;21766;-73
2021/12/25 03:25:22;;;;;;;15.03;10.68;;;;;;;4.09;93.78;97685.37;1750466;82;21542;-75
2021/12/25 03:27:51;;;;;;;13.25;11.20;;;;;;;4.09;93.63;97707.98;1705872;82;21021;-75
2021/12/25 03:30:20;;;;;;;13.15;10.40;;;;;;;4.09;93.56;97706.64;1752021;82;20942;-76
2021/12/25 03:32:46;;;;;;;11.28;8.68;;;;;;;4.04;93.46;97719.39;1702949;84;21071;-78
2021/12/25 03:35:12;;;;;;;11.18;8.83;;;;;;;4.04;93.57;97719.91;1721954;83;21537;-76
2021/12/25 03:37:40;;;;;;;11.57;9.30;;;;;;;4.05;93.59;97721.52;1699103;83;21002;-77
2021/12/25 03:40:08;;;;;;;13.10;8.43;;;;;;;4.06;93.43;97725.27;1722032;82;21078;-75
2021/12/25 03:42:35;;;;;;;11.95;8.53;;;;;;;4.07;93.43;97721.55;1713577;82;21580;-76
2021/12/25 03:45:02;;;;;;;11.18;8.80;;;;;;;4.09;93.25;97738.56;1737740;82;21069;-75
2021/12/25 03:47:36;;;;;;;18.82;8.18;;;;;;;4.09;93.16;97738.56;1750258;82;21151;-76
2021/12/25 03:58:09;;;;;;;9.08;8.08;;;;;;;4.09;91.95;97787.24;1750609;81;21527;-80
2021/12/25 04:00:34;;;;;;;10.08;7.70;;;;;;;4.09;91.77;97781.13;1730603;81;21104;-77
2021/12/25 04:03:06;;;;;;;10.40;7.28;;;;;;;4.09;91.72;97791.23;1719182;82;21578;-78
2021/12/25 04:05:34;;;;;;;9.90;7.35;;;;;;;4.07;91.64;97798.69;1704992;82;20947;-77
2021/12/25 04:08:06;;;;;;;7.28;6.55;;;;;;;4.03;91.59;97821.50;1727146;82;21636;-79
2021/12/25 04:10:36;;;;;;;7.12;6.00;;;;;;;4.02;91.58;97802.63;1721778;81;21056;-77
2021/12/25 04:13:05;;;;;;;8.33;7.08;;;;;;;4.04;91.42;97820.97;1715761;82;21196;-75
2021/12/25 04:15:32;;;;;;;7.67;6.37;;;;;;;4.01;91.16;97834.79;1703638;83;21109;-77
2021/12/25 04:17:59;;;;;;;8.85;6.67;;;;;;;3.98;91.00;97830.77;1724652;83;20970;-78
2021/12/25 04:20:27;;;;;;;9.53;6.65;;;;;;;3.94;90.90;97848.28;1733058;81;21027;-78
2021/12/25 04:23:03;;;;;;;7.05;5.85;;;;;;;3.91;91.16;97870.06;1739116;81;21033;-75
2021/12/25 04:25:27;;;;;;;6.00;5.35;;;;;;;3.82;91.66;97875.05;1743924;81;21061;-79
2021/12/25 04:27:52;;;;;;;5.42;4.25;;;;;;;3.67;90.72;97910.77;1741511;81;21066;-76
2021/12/25 04:30:31;;;;;;;4.20;3.42;;;;;;;3.45;89.98;97891.38;1723733;83;21040;-78
2021/12/25 04:33:27;;;;;;;4.75;3.60;;;;;;;3.26;89.85;97902.81;1713155;82;21413;-78
2021/12/25 05:02:58;;;;;;;4.22;3.83;;;;;;;2.41;91.68;97966.86;1724253;82;21528;-70
2021/12/25 05:05:17;;;;;;;4.72;3.27;;;;;;;2.39;91.55;97982.23;1729758;81;21092;-75
2021/12/25 05:07:47;;;;;;;6.55;4.35;;;;;;;2.40;91.62;97989.67;1742895;81;20956;-75
2021/12/25 05:10:13;;;;;;;4.87;3.67;;;;;;;2.42;91.62;97987.56;1755412;81;20991;-74
2021/12/25 05:12:40;;;;;;;3.52;2.75;;;;;;;2.41;91.67;97993.91;1755264;81;21105;-72
2021/12/25 05:15:08;;;;;;;4.28;3.30;;;;;;;2.39;91.70;98003.97;1719337;82;21079;-70
2021/12/25 05:17:34;;;;;;;4.08;3.05;;;;;;;2.35;91.79;97996.98;1724690;83;21098;-73
2021/12/25 05:20:04;;;;;;;6.10;3.25;;;;;;;2.35;92.01;98006.27;1709235;83;20953;-73
2021/12/25 05:22:32;;;;;;;5.20;3.87;;;;;;;2.33;92.35;98027.46;1717610;82;21063;-72
2021/12/25 05:24:58;;;;;;;4.25;3.67;;;;;;;2.34;92.57;98005.20;1717507;83;21498;-74
2021/12/25 05:27:25;;;;;;;4.50;3.08;;;;;;;2.36;92.70;98011.06;1739663;82;20980;-74
2021/12/25 05:29:52;;;;;;;4.45;4.00;;;;;;;2.37;92.78;98035.22;1741885;81;21139;-72
2021/12/25 05:32:20;;;;;;;3.55;3.25;;;;;;;2.36;92.85;98031.77;1714698;83;21600;-74
2021/12/25 05:34:53;;;;;;;4.17;3.72;;;;;;;2.36;92.90;98033.61;1729540;82;24987;-75
2021/12/25 05:37:38;;;;;;;4.72;3.98;;;;;;;2.34;92.93;98047.13;1724537;83;21022;-75
2021/12/25 05:40:12;;;;;;;5.08;3.58;;;;;;;2.33;92.92;98049.48;1741796;81;21040;-75
2021/12/25 05:42:40;;;;;;;3.47;3.17;;;;;;;2.34;92.86;98031.21;1738341;82;22034;-73
2021/12/25 05:45:07;;;;;;;5.00;3.80;;;;;;;2.35;92.63;98059.33;1670995;82;21557;-73
2021/12/25 05:47:36;;;;;;;4.85;4.05;;;;;;;2.36;92.48;98068.90;1719437;82;20987;-73
2021/12/25 05:50:04;;;;;;;4.65;3.80;;;;;;;2.35;92.03;98093.80;1720500;83;21544;-74
2021/12/25 05:52:49;;;;;;;4.37;3.77;;;;;;;2.35;91.24;98063.85;1700704;83;21032;-73
2021/12/25 05:55:25;;;;;;;7.95;4.35;;;;;;;2.34;90.61;98071.52;1712033;82;21559;-74
2021/12/25 05:58:03;;;;;;;4.40;4.00;;;;;;;2.36;90.45;98096.75;1747962;81;21602;-74
2021/12/25 06:00:36;;;;;;;6.55;4.70;;;;;;;2.36;89.96;98115.83;1732151;82;21536;-75
2021/12/25 06:03:05;;;;;;;5.00;4.25;;;;;;;2.34;89.35;98098.05;1749076;81;20967;-72
2021/12/25 06:05:33;;;;;;;5.90;4.72;;;;;;;2.33;89.07;98104.38;1738071;82;21051;-73
2021/12/25 06:07:59;;;;;;;4.72;4.22;;;;;;;2.31;89.03;98120.52;1724787;83;21061;-75
2021/12/25 06:10:26;;;;;;;4.80;3.90;;;;;;;2.31;88.90;98108.59;1717982;82;20925;-73
2021/12/25 06:12:55;;;;;;;4.90;4.10;;;;;;;2.30;88.64;98123.43;1720458;81;20917;-74
2021/12/25 06:15:23;;;;;;;5.17;4.42;;;;;;;2.32;88.61;98139.90;1706313;82;21489;-73
2021/12/25 06:17:52;;;;;;;5.12;3.95;;;;;;;2.31;87.80;98166.13;1750484;81;21041;-73
2021/12/25 06:20:27;;;;;;;5.85;4.58;;;;;;;2.27;87.25;98175.59;1730694;82;21164;-73
2021/12/25 06:23:13;;;;;;;5.83;4.37;;;;;;;2.24;86.54;98184.84;1762644;81;21017;-73
2021/12/25 06:25:53;;;;;;;6.60;5.40;;;;;;;2.22;85.63;98170.19;1714861;83;21029;-72
2021/12/25 06:28:24;;;;;;;5.75;4.45;;;;;;;2.22;85.37;98185.58;1726094;82;21544;-72
2021/12/25 06:31:11;;;;;;;6.05;4.60;;;;;;;2.23;85.15;98199.13;1683494;83;21008;-70
2021/12/25 06:33:40;;;;;;;6.30;4.62;;;;;;;2.21;84.41;98200.42;1714192;83;21052;-70
2021/12/25 06:36:11;;;;;;;6.55;4.55;;;;;;;2.17;83.67;98210.15;1716632;83;20956;-70
2021/12/25 06:38:43;;;;;;;5.87;5.15;;;;;;;2.13;81.96;98247.97;1740095;82;21007;-71
2021/12/25 06:41:12;;;;;;;5.40;4.28;;;;;;;2.10;81.03;98261.19;1737238;82;20988;-71
2021/12/25 06:43:40;;;;;;;6.03;4.83;;;;;;;2.08;80.70;98237.24;1750543;82;21059;-71
2021/12/25 06:46:08;;;;;;;6.62;5.00;;;;;;;2.06;80.27;98240.12;1750251;82;21502;-72
2021/12/25 06:48:34;;;;;;;6.15;4.87;;;;;;;2.03;78.80;98241.11;1750229;82;21521;-74
2021/12/25 06:51:10;;;;;;;5.95;4.50;;;;;;;2.00;78.49;98242.91;1750070;82;21045;-75
2021/12/25 06:53:38;;;;;;;6.22;4.80;;;;;;;1.96;78.16;98264.28;1750082;81;20971;-71
2021/12/25 06:56:06;;;;;;;6.83;5.40;;;;;;;1.95;78.39;98252.88;1749604;79;21578;-73
2021/12/25 06:58:39;;;;;;;8.23;5.58;;;;;;;1.92;78.40;98244.58;1736254;82;21289;-73
2021/12/25 07:01:05;;;;;;;6.75;5.53;;;;;;;1.89;78.49;98250.31;1749922;81;21513;-73
2021/12/25 07:03:32;;;;;;;8.03;5.95;;;;;;;1.86;78.59;98276.78;1750472;82;21028;-74
2021/12/25 07:06:17;;;;;;;6.17;5.20;;;;;;;1.83;78.40;98265.29;1750527;82;21542;-74
2021/12/25 07:08:45;;;;;;;5.47;4.90;;;;;;;1.80;78.42;98279.52;1749536;81;21047;-74
2021/12/25 07:11:22;;;;;;;7.40;5.72;;;;;;;1.75;78.31;98265.12;1746464;82;21187;-74
2021/12/25 07:13:51;;;;;;;8.05;6.05;;;;;;;1.75;78.43;98289.48;1750077;81;20926;-73
2021/12/25 07:16:35;;;;;;;7.37;5.37;;;;;;;1.75;78.59;98284.18;1748822;80;21065;-73
2021/12/25 07:19:19;;;;;;;7.70;5.60;;;;;;;1.73;78.55;98284.40;1738419;82;22221;-75
2021/12/25 07:22:00;;;;;;;8.58;5.55;;;;;;;1.72;78.57;98298.71;1743910;81;21552;-72
2021/12/25 07:24:36;;;;;;;6.35;5.53;;;;;;;1.73;78.59;98300.81;1748546;81;21614;-75
2021/12/25 07:27:21;;;;;;;7.05;5.33;;;;;;;1.72;78.44;98345.09;1748870;81;20978;-73
2021/12/25 07:29:52;;;;;;;6.50;4.75;;;;;;;1.69;78.20;98336.24;1748778;79;21012;-74
2021/12/25 07:32:19;;;;;;;7.62;5.97;;;;;;;1.69;78.02;98345.52;1748676;81;21027;-73
2021/12/25 07:34:47;;;;;;;8.98;6.80;;;;;;;1.68;78.28;98350.52;1748888;81;21055;-76
2021/12/25 07:37:14;;;;;;;10.50;6.83;;;;;;;1.68;78.49;98347.06;1739833;82;21012;-77
2021/12/25 07:39:44;;;;;;;9.58;7.45;;;;;;;1.66;78.46;98359.73;1719282;82;21060;-78
2021/12/25 07:42:11;;;;;;;9.43;6.92;;;;;;;1.64;78.63;98373.72;1737362;82;21012;-77
2021/12/25 07:44:53;;;;;;;9.28;6.97;;;;;;;1.65;78.76;98385.94;1731663;82;21237;-77
2021/12/25 07:47:21;;;;;;;8.75;6.72;;;;;;;1.62;78.94;98398.32;1742456;81;21073;-77
2021/12/25 07:49:45;;;;;;;9.45;7.15;;;;;;;1.61;79.03;98433.80;1738261;82;21182;-76
2021/12/25 07:52:11;;;;;;;11.20;7.35;;;;;;;1.61;78.95;98400.67;1724704;83;21068;-75
2021/12/25 07:54:39;;;;;;;8.23;6.87;;;;;;;1.60;78.54;98417.09;1738140;82;20988;-75
2021/12/25 07:57:06;;;;;;;9.30;7.80;;;;;;;1.61;78.63;98412.59;1724504;83;21194;-74
2021/12/25 07:59:34;;;;;;;10.90;7.20;;;;;;;1.62;78.57;98422.98;1738577;82;21039;-77
2021/12/25 08:02:00;;;;;;;12.88;8.88;;;;;;;1.63;78.53;98427.22;1724109;83;22030;-77
2021/12/25 08:04:27;;;;;;;10.80;7.58;;;;;;;1.63;77.89;98428.55;1724382;83;21528;-77
2021/12/25 08:06:54;;;;;;;11.20;8.33;;;;;;;1.62;77.90;98433.58;1738647;80;21664;-76
2021/12/25 08:09:28;;;;;;;9.13;7.30;;;;;;;1.59;77.35;98448.58;1748805;81;21509;-73
2021/12/25 08:11:49;;;;;;;9.98;7.28;;;;;;;1.60;77.41;98442.25;1748084;81;21117;-72
2021/12/25 08:14:15;;;;;;;9.65;7.08;;;;;;;1.61;77.16;98450.50;1738820;82;21314;-74
2021/12/25 08:16:43;;;;;;;13.58;6.80;;;;;;;1.58;76.83;98470.80;1747513;81;20953;-75
2021/12/25 08:19:11;;;;;;;11.38;7.35;;;;;;;1.55;76.13;98443.95;1736929;82;20982;-74
2021/12/25 08:21:56;;;;;;;10.58;7.42;;;;;;;1.56;75.88;98456.98;1747261;82;20942;-74
2021/12/25 08:24:41;;;;;;;8.68;6.75;;;;;;;1.54;75.42;98463.52;1708047;83;21466;-75
2021/12/25 08:27:25;;;;;;;8.73;7.67;;;;;;;1.57;75.49;98466.55;1706563;84;21009;-74
2021/12/25 08:30:07;;;;;;;9.30;6.35;;;;;;;1.60;75.49;98466.61;1707322;84;21031;-73
2021/12/25 08:32:39;;;;;;;10.88;7.72;;;;;;;1.62;75.59;98477.30;1655746;85;21031;-75
2021/12/25 08:35:31;;;;;;;10.88;7.55;;;;;;;1.63;76.37;98488.71;1656469;86;21616;-75
2021/12/25 08:37:57;;;;;;;12.18;8.63;;;;;;;1.61;77.45;98507.98;1636230;85;21676;-75
2021/12/25 08:40:24;;;;;;;11.55;8.48;;;;;;;1.54;78.64;98497.96;1702150;83;22640;-75
2021/12/25 08:42:58;;;;;;;9.75;6.25;;;;;;;1.43;79.85;98507.98;1706890;84;21013;-75
2021/12/25 08:48:17;;;;;;;6.33;5.00;;;;;;;1.21;77.33;98519.50;1702530;84;21027;-76
2021/12/25 08:50:47;;;;;;;6.15;4.85;;;;;;;1.12;76.21;98508.38;1708020;83;21517;-76
2021/12/25 08:53:14;;;;;;;7.53;5.10;;;;;;;1.08;75.51;98509.03;1678189;85;21160;-77
2021/12/25 08:55:42;;;;;;;8.23;5.05;;;;;;;1.06;74.92;98503.95;1658226;85;20936;-77
2021/12/25 08:58:10;;;;;;;7.43;5.83;;;;;;;1.06;74.84;98516.38;1679408;84;21036;-78
2021/12/25 09:00:36;;;;;;;8.85;4.40;;;;;;;1.06;74.71;98519.83;1678257;85;21044;-79
2021/12/25 09:03:09;;;;;;;7.40;4.75;;;;;;;1.04;75.07;98525.88;1690472;84;21004;-78
2021/12/25 09:05:38;;;;;;;9.05;5.60;;;;;;;1.05;75.61;98518.23;1658436;85;21716;-79
2021/12/25 09:08:06;;;;;;;10.05;5.50;;;;;;;1.02;75.69;98528.42;1672876;85;21583;-78
2021/12/25 09:10:40;;;;;;;9.07;6.33;;;;;;;1.04;76.31;98523.23;1678028;85;21627;-78
2021/12/25 09:13:08;;;;;;;7.03;4.53;;;;;;;1.06;76.59;98526.97;1679671;85;21548;-76
2021/12/25 09:15:39;;;;;;;7.03;5.12;;;;;;;1.05;76.58;98557.95;1712466;83;21078;-77
2021/12/25 09:18:06;;;;;;;7.47;4.90;;;;;;;1.05;76.22;98530.66;1721141;82;21587;-78
2021/12/25 09:20:34;;;;;;;6.87;5.17;;;;;;;1.05;75.91;98539.92;1705885;82;21023;-81
2021/12/25 09:23:04;;;;;;;6.87;5.53;;;;;;;1.05;75.61;98544.71;1719889;82;20983;-77
2021/12/25 09:25:32;;;;;;;8.00;5.35;;;;;;;1.05;74.91;98555.81;1750701;82;21088;-77
2021/12/25 09:28:00;;;;;;;8.63;5.47;;;;;;;1.04;74.24;98551.53;1718349;83;21015;-77
2021/12/25 09:30:27;;;;;;;7.05;5.20;;;;;;;1.05;74.14;98544.71;1726296;82;21066;-78
2021/12/25 09:32:57;;;;;;;7.53;5.53;;;;;;;1.03;73.28;98555.20;1738447;82;21007;-78
2021/12/25 09:35:24;;;;;;;8.25;5.37;;;;;;;1.01;73.30;98554.09;1748250;82;21301;-75
2021/12/25 09:37:51;;;;;;;9.48;7.17;;;;;;;1.01;73.01;98563.89;1732698;82;21356;-77
2021/12/25 09:40:18;;;;;;;7.63;5.37;;;;;;;1.00;73.03;98556.46;1733979;82;21064;-76
2021/12/25 09:42:44;;;;;;;8.90;5.58;;;;;;;1.05;73.29;98565.08;1743835;82;21115;-77
2021/12/25 09:45:11;;;;;;;8.10;6.40;;;;;;;1.07;72.21;98574.92;1725983;82;21049;-77
2021/12/25 09:47:39;;;;;;;9.18;6.47;;;;;;;1.04;71.19;98576.69;1743951;81;21055;-75
2021/12/25 09:50:07;;;;;;;6.42;5.05;;;;;;;1.03;70.96;98581.67;1736357;82;21077;-78
2021/12/25 09:52:33;;;;;;;6.93;5.20;;;;;;;1.01;70.49;98582.42;1737620;82;20979;-79
2021/12/25 09:55:01;;;;;;;11.08;5.72;;;;;;;0.98;70.13;98585.48;1750638;82;21550;-79
2021/12/25 09:57:31;;;;;;;9.43;6.85;;;;;;;0.98;70.03;98590.27;1749408;82;21027;-77
2021/12/25 09:59:57;;;;;;;6.33;5.43;;;;;;;0.96;68.92;98607.40;1743448;82;21153;-79
2021/12/25 10:02:23;;;;;;;9.73;5.47;;;;;;;0.91;67.59;98605.39;1727518;82;21013;-80
2021/12/25 10:04:52;;;;;;;7.62;5.45;;;;;;;0.87;67.59;98598.89;1736986;82;21015;-77
2021/12/25 10:07:29;;;;;;;7.78;5.83;;;;;;;0.86;67.95;98604.69;1730813;82;21054;-82
2021/12/25 10:10:13;;;;;;;7.43;5.97;;;;;;;0.85;67.93;98595.16;1728881;81;21477;-82
2021/12/25 10:12:45;;;;;;;8.83;5.83;;;;;;;0.84;68.03;98596.17;1717364;82;21512;-84
2021/12/25 10:15:19;;;;;;;6.17;4.97;;;;;;;0.83;67.89;98589.25;1750473;82;21699;-85
2021/12/25 10:17:52;;;;;;;8.57;6.00;;;;;;;0.84;67.92;98589.55;1742152;81;21544;-78
2021/12/25 10:20:22;;;;;;;8.00;5.95;;;;;;;0.85;67.44;98601.77;1750762;81;21890;-80
2021/12/25 10:23:02;;;;;;;5.63;4.53;;;;;;;0.88;67.43;98600.52;1723979;82;20978;-75
2021/12/25 10:25:35;;;;;;;7.37;5.83;;;;;;;0.92;67.20;98603.53;1749326;80;21520;-76
2021/12/25 10:28:09;;;;;;;5.73;4.83;;;;;;;0.97;67.08;98607.67;1733638;81;21014;-78
2021/12/25 10:31:04;;;;;;;8.05;5.40;;;;;;;0.99;66.68;98605.63;1746113;81;21003;-80
2021/12/25 10:33:44;;;;;;;9.07;5.40;;;;;;;1.04;67.04;98607.94;1732507;82;21967;-79
2021/12/25 10:36:34;;;;;;;10.67;5.87;;;;;;;1.13;67.02;98614.59;1750635;81;21482;-78
2021/12/25 10:39:07;;;;;;;7.70;5.43;;;;;;;1.19;66.59;98611.09;1745908;82;21039;-78
2021/12/25 10:41:37;;;;;;;;;;;;;;;1.19;64.53;98632.78;1740603;81;21041;-77
2021/12/25 10:44:27;;;;;;;5.40;4.30;;;;;;;1.14;64.05;98618.05;1746875;82;20191;-77
2021/12/25 10:47:05;;;;;;;7.53;5.70;;;;;;;1.10;64.43;98621.66;1750754;81;22220;-80
2021/12/25 10:49:50;;;;;;;6.90;5.00;;;;;;;1.10;64.99;98626.95;1730581;82;21103;-79
2021/12/25 10:52:29;;;;;;;10.50;6.03;;;;;;;1.14;64.78;98628.64;1750502;82;21045;-77
2021/12/25 10:54:59;;;;;;;7.50;5.40;;;;;;;1.19;65.15;98638.08;1750556;81;21029;-80
2021/12/25 10:57:43;;;;;;;8.27;5.93;;;;;;;1.22;64.71;98642.93;1724840;82;21022;-79
2021/12/25 11:00:24;;;;;;;6.87;5.65;;;;;;;1.23;63.38;98653.83;1742504;82;22435;-80
2021/12/25 11:02:54;;;;;;;6.35;5.08;;;;;;;1.16;62.57;98648.57;1738297;81;21003;-77
2021/12/25 11:05:34;;;;;;;6.30;4.53;;;;;;;1.14;62.60;98653.80;1750340;81;21102;-77
2021/12/25 11:08:24;;;;;;;7.70;4.73;;;;;;;1.11;61.89;98665.61;1749255;81;20999;-76
2021/12/25 11:10:58;;;;;;;7.95;5.08;;;;;;;1.09;60.65;98655.77;1724571;82;21040;-75
2021/12/25 11:13:43;;;;;;;6.53;4.40;;;;;;;1.09;59.96;98646.50;1718930;83;21110;-77
2021/12/25 11:16:27;;;;;;;5.90;3.97;;;;;;;1.12;59.86;98655.33;1732632;81;21640;-78
2021/12/25 11:19:27;;;;;;;7.40;3.87;;;;;;;1.18;59.72;98669.55;1719575;81;21588;-80
2021/12/25 11:21:23;;;;;;;6.70;4.97;;;;;;;1.21;59.30;98665.14;1697880;84;20970;-78
2021/12/25 11:23:50;;;;;;;5.50;3.87;;;;;;;1.23;58.60;98673.69;1720970;83;21035;-80
2021/12/25 11:26:19;;;;;;;6.70;4.40;;;;;;;1.21;57.42;98671.75;1720460;83;21423;-82
2021/12/25 11:28:48;;;;;;;8.60;5.78;;;;;;;1.19;57.74;98669.85;1757135;81;21041;-81
2021/12/25 11:31:18;;;;;;;7.57;5.13;;;;;;;1.24;57.95;98672.67;1750597;81;21546;-81
2021/12/25 11:33:47;;;;;;;5.83;3.97;;;;;;;1.28;57.57;98686.59;1736935;82;20992;-83
2021/12/25 11:36:14;;;;;;;4.87;3.47;;;;;;;1.27;55.62;98700.85;1750559;82;20989;-77
2021/12/25 11:38:40;;;;;;;5.25;4.75;;;;;;;1.22;54.52;98698.54;1737391;82;21044;-74
2021/12/25 11:41:09;;;;;;;5.85;4.28;;;;;;;1.19;54.81;98694.50;1750496;82;21049;-76
2021/12/25 11:43:45;;;;;;;4.90;4.15;;;;;;;1.17;54.35;98705.80;1750352;82;21082;-73
2021/12/25 11:46:11;;;;;;;5.53;3.83;;;;;;;1.18;54.03;98706.62;1750416;80;21031;-75
2021/12/25 11:48:38;;;;;;;5.90;4.53;;;;;;;1.17;52.18;98716.39;1696442;83;21110;-79
2021/12/25 11:51:06;;;;;;;7.78;5.72;;;;;;;1.20;52.88;98724.44;1730806;82;21547;-75
2021/12/25 11:53:44;;;;;;;5.90;3.40;;;;;;;1.19;51.11;98718.84;1728136;82;21123;-76
2021/12/25 11:56:31;;;;;;;4.42;3.15;;;;;;;1.15;50.22;98729.02;1722144;82;21503;-80
2021/12/25 11:58:54;;;;;;;;;;;;;;;1.10;50.08;98724.09;1728009;82;21058;-76
2021/12/25 12:01:44;;;;;;;4.92;4.10;;;;;;;1.08;50.29;98724.80;1728209;82;20445;-78
2021/12/25 12:04:25;;;;;;;5.13;3.50;;;;;;;1.06;50.04;98732.13;1720052;82;39394;-77
2021/12/25 12:07:03;;;;;;;4.12;2.92;;;;;;;1.07;49.98;98742.52;1730721;82;21004;-77
2021/12/25 12:09:54;;;;;;;4.45;3.22;;;;;;;1.09;49.21;98743.64;1670807;85;21083;-78
2021/12/25 12:12:28;;;;;;;6.50;3.47;;;;;;;1.08;49.45;98740.17;1720094;81;21142;-77
2021/12/25 12:15:15;;;;;;;5.17;3.40;;;;;;;1.09;49.88;98743.64;1738548;81;21603;-80
2021/12/25 12:18:34;;;;;;;6.37;4.30;;;;;;;1.08;50.01;98746.80;1726624;82;21386;-77
2021/12/25 12:21:23;;;;;;;4.93;3.73;;;;;;;1.10;50.84;98764.63;1750658;81;21592;-78
2021/12/25 12:26:53;;;;;;;5.87;4.50;;;;;;;1.24;51.13;98774.63;1723950;82;21041;-76
2021/12/25 12:29:49;;;;;;;7.17;4.53;;;;;;;1.23;50.84;98784.91;1747527;82;21006;-77
2021/12/25 12:32:26;;;;;;;4.80;4.30;;;;;;;1.14;51.67;98789.65;1732675;82;21228;-78
2021/12/25 12:34:54;;;;;;;5.73;4.20;;;;;;;1.03;52.20;98781.03;1727772;81;21040;-78
2021/12/25 12:37:29;;;;;;;6.20;4.10;;;;;;;0.99;52.48;98775.86;1739217;82;21658;-78
2021/12/25 12:40:04;;;;;;;5.33;3.80;;;;;;;0.93;51.96;98790.44;1750248;81;21533;-78
2021/12/25 12:42:49;;;;;;;4.80;3.60;;;;;;;0.81;52.24;98792.95;1740241;80;21063;-76
2021/12/25 12:45:24;;;;;;;3.83;3.37;;;;;;;0.69;52.15;98801.22;1749314;82;22025;-78
2021/12/25 12:48:16;;;;;;;7.80;3.60;;;;;;;0.58;51.49;98819.05;1746954;82;21046;-74
2021/12/25 12:50:50;;;;;;;6.27;3.70;;;;;;;0.51;51.22;98811.64;1737603;82;21034;-76
2021/12/25 12:53:16;;;;;;;5.40;3.30;;;;;;;0.47;51.68;98817.05;1747819;81;21050;-80
2021/12/25 12:55:45;;;;;;;6.03;3.93;;;;;;;0.41;51.65;98826.62;1708316;82;21080;-77
2021/12/25 12:58:18;;;;;;;4.93;3.63;;;;;;;0.37;51.98;98818.29;1703273;82;21023;-78
2021/12/25 13:01:00;;;;;;;4.93;3.73;;;;;;;0.33;52.14;98836.09;1699718;82;21091;-77
2021/12/25 13:03:29;;;;;;;4.55;3.58;;;;;;;0.30;52.60;98837.30;1720707;82;20948;-79